Schenectady, NY (12301)

7:47 AM EDT on July 28, 2016 (GMT -0400)
Stockade | | Change Station

Elev 249 ft 42.82 °N, 73.95 °W | Updated 17 seconds ago

Partly Cloudy
Partly Cloudy
70.0 °F
Feels Like 70.0 °F
N
1.0
Wind Variable Wind from WSW
Gusts 2.0 mph

Today
High -- | Low -- °F
--% Chance of Precip.
Yesterday
High -- | Low -- °F
Precip. -- in
Pressure 29.92 in
Visibility 10.0 miles
Clouds Few 10000 ft
Few 26000 ft
Dew Point 58 °F
Humidity 67%
Rainfall 0.00 in
Snow Depth Not available.
5:43 AM 8:20 PM
Waning Crescent, 33% visible
METAR KALB 281051Z 00000KT 10SM FEW100 FEW260 21/17 A2992 RMK AO2 SLP131 T02060172
Pressure 29.92 in
Visibility 10.0 miles
Clouds Few 10000 ft
Few 26000 ft
Dew Point 58 °F
Humidity 67%
Rainfall 0.00 in
Snow Depth Not available.
5:43 AM 8:20 PM
Waning Crescent, 33% visible
METAR KALB 281051Z 00000KT 10SM FEW100 FEW260 21/17 A2992 RMK AO2 SLP131 T02060172

10-Day Weather Forecast

Almanac

Astronomy

Jul. 28, 2016 Rise Set
Actual Time
Civil Twilight
Nautical Twilight
Astronomical Twilight
Moon
Length of Visible Light
Length of Day
Tomorrow will be .
, % of the Moon is Illuminated

Today's Extremes

State Highs State Lows

Community

WunderPhotos

Upload Photos

1,928,096 photos uploaded!

WunderBlog® & News

Nearby

Air Quality

  Air Quality AQ Index Pollutant
Not available.

Snow Depth

Station Depth Elevation

Earthquake Activity

City Distance Mag. Time & Date
Minimum magnitude displayed is 2.5.

Coastal Water Temperatures

Place Temperature

Stations

Nearby Weather Stations

Station Location Temp. Windchill Dew Point Humidity Wind Precip. Elev Updated Type
                   

Watches & Warnings

There are currently no watches in effect.